x

Neah Bay, - 6nm North Of Cape Flattery, Wa (traffic Separation Lighted Buoy) (46087) Wave Buoy

5:50pm - Wed 29th Mar 2017 All times are PDT. -7 hours from GMT.

  • Sig Wave height 8.2ft
  • Swell Direction
  • Peak Period 14s
  • Average Period 7s
  • Wind
    22mph, 27mph gusts
  • Sea Temp 50°f
  • Air Temp 47°f
  • Sea Pressure 1012.9mb
  • Neah Bay, - 6nm North Of Cape Flattery, Wa     (traffic Separation Lighted Buoy)
  • Neah Bay, - 6nm North Of Cape Flattery, Wa     (traffic Separation Lighted Buoy)

More Historic Weather Station data

Upgrade to MSW Pro to gain access to the past 30 days of data for over 8000 Wavebouys and Weather Stations around the globe.

Join Pro

Comparision Forecast

View Surf forecast
   
Wed 03/29 5:50pm 8ft 14s 7s 22 27 mph 1012.9mb 50f 47f
5:20pm 10ft 15s 7s 25 29 mph 1012.4mb 50f 48f
4:50pm 10.5ft 15s 7s 22 29 mph 1012.1mb 50f 48f
4:20pm 11ft 8s 7s 25 29 mph 1011.7mb 50f 48f
3:50pm 10.5ft 15s 7s 25 29 mph 1011.2mb 50f 49f
3:20pm 9.5ft 14s 7s 22 27 mph 1011mb 50f 48f
2:50pm 10ft 10s 7s 27 31 mph 1010.3mb 50f 48f
2:20pm 10ft 12s 7s 27 31 mph 1009.9mb 50f 48f
1:50pm 10ft 11s 7s 27 34 mph 1009.4mb 50f 48f
1:20pm 10ft 11s 8s 25 31 mph 1008.8mb 50f 49f
12:50pm 9ft 15s 8s 27 31 mph 1007.9mb 50f 48f
12:20pm 10.5ft 15s 9s 22 27 mph 1007.1mb 50f 48f
11:50am 9ft 16s 8s 18 22 mph 1006.5mb 50f 49f
11:20am 9ft 14s 8s 18 22 mph 1006.5mb 50f 49f
10:50am 10ft 16s 8s 18 20 mph 1006.1mb 50f 49f
10:20am 9ft 14s 8s 18 27 mph 1005.8mb 50f 47f
9:50am 10ft 15s 8s 25 29 mph 1005.4mb 50f 46f
9:20am 9.5ft 16s 8s 25 31 mph 1005.4mb 50f 46f
8:50am 9ft 16s 8s 27 31 mph 1005.5mb 50f 47f
8:20am 9ft 13s 8s 22 29 mph 1005.9mb 50f 47f
7:50am 8ft 15s 8s 25 29 mph 1006.2mb 50f 47f
7:20am 8.5ft 16s 9s 22 29 mph 1006.4mb 50f 47f
6:50am 9ft 16s 9s 18 22 mph 1007.1mb 50f 47f
6:20am 9.5ft 12s 8s 16 22 mph 1007.5mb 50f 47f
5:50am 9ft 16s 9s 20 22 mph 1007.9mb 50f 48f
5:20am 8.5ft 16s 8s 18 22 mph 1008.6mb 50f 48f
4:50am 8.5ft 11s 8s 20 25 mph 1009mb 49f 48f
4:20am 8.5ft 11s 8s 18 22 mph 1009.7mb 49f 48f
3:50am 9.5ft 11s 8s 18 22 mph 1010.3mb 49f 48f
3:20am 10ft 15s 9s 16 20 mph 1011.2mb 49f 48f
2:50am 10ft 16s 8s 18 22 mph 1011.8mb 50f 48f
2:20am 10ft 11s 8s 18 22 mph 1012.7mb 50f 48f
1:50am 10ft 16s 8s 16 20 mph 1013.4mb 50f 48f
1:20am 10ft 10s 8s 20 25 mph 1013.8mb 50f 48f
12:50am 10ft 11s 8s 18 22 mph 1014.6mb 50f 48f
12:20am 9.5ft 16s 8s 20 25 mph 1015mb 50f 48f
Tue 03/28 11:50pm 9.5ft 11s 9s 18 22 mph 1015.5mb 50f 48f
11:20pm 9.5ft 10s 9s 18 22 mph 1016.1mb 50f 48f
10:50pm 9ft 15s 9s 16 20 mph 1016.4mb 50f 48f
10:20pm 9ft 16s 9s 13 18 mph 1016.7mb 50f 49f
9:50pm 9ft 11s 9s 11 16 mph 1017.4mb 50f 48f
9:20pm 8ft 16s 9s 11 18 mph 1017.8mb 50f 48f
8:50pm 8ft 11s 8s 9 16 mph 1017.9mb 50f 48f
8:20pm 8.5ft 10s 8s 7 13 mph 1018.2mb 50f 48f
7:50pm 8ft 14s 9s 9 11 mph 1018mb 50f 49f
7:20pm 7ft 11s 8s 13 16 mph 1018mb 50f 49f
6:50pm 7ft 11s 8s 13 16 mph 1018.2mb 50f 49f
6:20pm 9ft 15s 8s 13 16 mph 1018.4mb 50f 49f
5:50pm 10.5ft 16s 8s 16 18 mph 1018.2mb 50f 49f
5:20pm 11ft 11s 8s 13 18 mph 1018.4mb 50f 49f
4:50pm 12ft 11s 9s 16 18 mph 1018.3mb 50f 49f
4:20pm 12ft 11s 9s 16 20 mph 1018.2mb 50f 49f
3:50pm 12ft 16s 9s 18 22 mph 1018.3mb 50f 49f
3:20pm 13ft 11s 8s 18 20 mph 1018.3mb 50f 49f
2:50pm 11.5ft 8s 8s 18 22 mph 1018.3mb 50f 49f
2:20pm 11ft 9s 8s 20 25 mph 1018.3mb 50f 50f
1:50pm 13ft 16s 8s 22 27 mph 1018.1mb 50f 49f
12:50pm 12.5ft 17s 8s 22 27 mph 1018.2mb 49f 49f
11:50am 11ft 8s 8s 22 29 mph 1018mb 49f 49f
10:50am 11ft 11s 9s 20 27 mph 1018.1mb 49f 49f
8:20am 9.5ft 17s 8s 22 27 mph 1017.5mb 49f 49f
7:50am 9.5ft 11s 8s 22 27 mph 1017.3mb 49f 49f
7:20am 9ft 11s 8s 22 27 mph 1017.4mb 49f 49f
6:50am 8.5ft 12s 8s 25 29 mph 1017.2mb 49f 49f
6:20am 9ft 11s 8s 25 31 mph 1017.5mb 49f 49f
5:50am 10ft 12s 8s 25 29 mph 1017.4mb 49f 48f
5:20am 9.5ft 11s 8s 22 27 mph 1017.8mb 49f 48f
4:50am 10ft 12s 8s 25 31 mph 1018.3mb 49f 49f
4:20am 10ft 11s 7s 25 29 mph 1017.9mb 49f 49f
3:50am 11ft 11s 8s 25 31 mph 1018.3mb 49f 49f
3:20am 10ft 12s 8s 22 31 mph 1018.6mb 49f 49f
2:50am 11ft 11s 8s 25 29 mph 1018.7mb 49f 48f
2:20am 10.5ft 11s 8s 25 29 mph 1018.4mb 49f 48f
1:50am 10.5ft 12s 7s 25 29 mph 1018.7mb 50f 47f
1:20am 11.5ft 11s 8s 25 31 mph 1019mb 50f 47f
12:50am 12.5ft 11s 8s 25 31 mph 1019.6mb 50f 47f
12:20am 10.5ft 12s 8s 22 29 mph 1019.9mb 50f 47f
Mon 03/27 11:50pm 11ft 11s 8s 20 29 mph 1020.2mb 50f 46f
11:20pm 11.5ft 11s 9s 20 25 mph 1020.7mb 50f 46f
10:50pm 11.5ft 12s 9s 22 27 mph 1021.3mb 50f 46f
10:20pm 10.5ft 12s 9s 22 27 mph 1021.2mb 50f 46f
9:50pm 10.5ft 12s 9s 22 29 mph 1021.1mb 50f 46f
9:20pm 11ft 12s 10s 18 20 mph 1021.1mb 50f 46f
8:50pm 9.5ft 13s 9s 16 20 mph 1021mb 50f 47f
8:20pm 10ft 12s 9s 20 25 mph 1020.8mb 50f 47f
7:50pm 10ft 12s 9s 20 25 mph 1020.7mb 50f 47f
7:20pm 9ft 12s 8s 18 22 mph 1020.6mb 50f 47f
6:50pm 9ft 13s 9s 20 25 mph 1020.5mb 50f 46f
6:20pm 9ft 13s 9s 16 20 mph 1020.3mb 50f 46f
5:50pm 8ft 12s 8s 20 25 mph 1020.1mb 50f 47f
5:20pm 10ft 13s 9s 20 25 mph 1020mb 50f 46f
4:50pm 10ft 13s 9s 18 20 mph 1019.7mb 50f 48f
4:20pm 9.5ft 11s 9s 18 20 mph 1019.5mb 50f 48f
3:50pm 8ft 13s 8s 16 20 mph 1019.6mb 50f 49f
3:20pm 8ft 14s 8s 16 18 mph 1019.4mb 50f 48f
2:50pm 7.5ft 14s 7s 16 18 mph 1019.3mb 50f 47f
2:20pm 7ft 8s 7s 18 20 mph 1019.2mb 50f 49f
1:50pm 7ft 9s 7s 16 20 mph 1018.7mb 50f 49f
1:20pm 7.5ft 9s 7s 13 18 mph 1018.4mb 50f 48f
12:50pm 7.5ft 9s 7s 18 20 mph 1017.4mb 50f 49f
12:20pm 7ft 8s 7s 13 20 mph 1016.9mb 50f 48f
11:50am 7.5ft 8s 7s 11 16 mph 1016.8mb 49f 49f
11:20am 6.5ft 9s 7s 13 18 mph 1016mb 49f 49f
10:50am 6.5ft 9s 7s 16 20 mph 1015.8mb 49f 48f
10:20am 6ft 8s 7s 11 20 mph 1014.9mb 49f 48f
9:50am 5.5ft 9s 7s 11 13 mph 1014.4mb 49f 45f
9:20am 5ft 9s 7s 18 22 mph 1014.3mb 49f 46f
8:50am 4.5ft 10s 8s 7 9 mph 1014mb 49f 46f
8:20am 4.5ft 9s 7s 11 13 mph 1013.4mb 49f 47f
7:50am 4.5ft 9s 7s 11
mph
1012.7mb 49f 46f
7:20am 4.5ft 11s 6s 11 13 mph 1012.3mb 49f 46f
6:50am 4.5ft 10s 7s 13 16 mph 1012.2mb 49f 46f
6:20am 4.5ft 9s 7s 13 16 mph 1011.8mb 49f 47f
5:50am 4.5ft 10s 7s 11 13 mph 1011.5mb 49f 47f
5:20am 4.5ft 10s 7s 11 13 mph 1011.1mb 49f 47f
4:50am 4.5ft 9s 7s 13 16 mph 1010.7mb 49f 47f
4:20am 4.5ft 11s 7s 16 18 mph 1010.1mb 49f 47f
3:50am 4.5ft 10s 7s 11 13 mph 1009.9mb 49f 48f
3:20am 5ft 11s 7s 13 18 mph 1009.7mb 49f 47f
2:50am 4.5ft 10s 6s 13 16 mph 1009.6mb 49f 45f
2:20am 4.5ft 11s 7s 13 18 mph 1008.8mb 49f 48f
1:50am 5.5ft 10s 7s 11 13 mph 1008.8mb 49f 48f
1:20am 5ft 9s 7s 11 16 mph 1008.6mb 49f 48f
12:50am 5ft 11s 7s 13 16 mph 1008.3mb 49f 47f
12:20am 6ft 9s 7s 11 13 mph 1008mb 49f 48f
Sun 03/26 11:50pm 6.5ft 9s 7s 11 16 mph 1007.9mb 49f 48f
11:20pm 6.5ft 10s 7s 13 16 mph 1007.8mb 49f 48f
10:50pm 5.5ft 9s 7s 16 18 mph 1007.4mb 49f 48f
10:20pm 5.5ft 10s 7s 13 18 mph 1007mb 49f 48f
9:50pm 5ft 10s 7s 11 16 mph 1006.8mb 49f 48f
9:20pm 5ft 11s 7s 13 16 mph 1006.7mb 49f 48f
8:50pm 5ft 10s 7s 16 18 mph 1006.4mb 49f 48f
8:20pm 6ft 9s 7s 16 18 mph 1006.2mb 49f 48f
7:50pm 5.5ft 9s 6s 18 20 mph 1006mb 49f 48f
7:20pm 6ft 10s 6s 18 22 mph 1005.8mb 49f 47f
6:50pm 5.5ft 9s 7s 13 22 mph 1005.5mb 49f 46f
6:20pm 6.5ft 9s 7s 13 16 mph 1005.5mb 49f 45f
5:50pm 6ft 9s 7s 13 16 mph 1005.3mb 49f 46f
5:20pm 5.5ft 9s 6s 13 16 mph 1005mb 49f 46f
4:50pm 6ft 8s 6s 11 16 mph 1004.9mb 49f 46f
4:20pm 6ft 9s 6s 16 20 mph 1004.7mb 49f 46f
3:50pm 6ft 9s 7s 16 20 mph 1004.4mb 49f 46f
3:20pm 5.5ft 8s 7s 18 22 mph 1004.3mb 49f 45f
2:50pm 5.5ft 9s 7s 20 25 mph 1004.3mb 49f 46f
2:20pm 5ft 7s 6s 20 22 mph 1004.3mb 49f 45f
1:50pm 5ft 9s 6s 20 25 mph 1004.3mb 49f 45f
1:20pm 5ft 8s 6s 18 22 mph 1004.4mb 49f 45f
12:50pm 5ft 8s 6s 18 27 mph 1004.5mb 49f 45f
12:20pm 4.5ft 9s 6s 20 25 mph 1004.5mb 49f 45f
11:50am 5ft 11s 6s 22 25 mph 1005.1mb 49f 44f
11:20am 5ft 9s 5s 22 27 mph 1005.2mb 49f 44f
10:50am 5ft 9s 6s 25 29 mph 1005.3mb 49f 43f
10:20am 5ft 9s 5s 25 29 mph 1005.6mb 49f 43f
9:50am 5.5ft 9s 6s 25 31 mph 1005.8mb 49f 43f
9:20am 5ft 9s 6s 25 31 mph 1006.1mb 49f 43f
8:50am 5ft 12s 6s 22 29 mph 1006.4mb 49f 43f
8:20am 4.5ft 12s 5s 22 27 mph 1006.6mb 49f 44f
7:50am 4.5ft 12s 5s 20 25 mph 1007.1mb 49f 43f
7:20am 5ft 9s 5s 20 25 mph 1007.6mb 49f 43f
6:50am 5.5ft 12s 5s 22 29 mph 1007.9mb 49f 44f
6:20am 5ft 9s 5s 22 25 mph 1008.2mb 49f 45f
5:50am 5ft 9s 6s 25 29 mph 1008.6mb 49f 45f
5:20am 5.5ft 10s 6s 22 25 mph 1009.1mb 49f 45f
4:50am 5ft 12s 6s 22 27 mph 1009.5mb 49f 46f
4:20am 5.5ft 10s 8s 22 27 mph 1010.3mb 49f 46f
3:50am 6ft 10s 8s 18 25 mph 1011.1mb 49f 46f
3:20am 6.5ft 9s 8s 18 22 mph 1011.6mb 49f 45f
2:50am 6.5ft 9s 8s 18 22 mph 1012.1mb 49f 45f